createdAt,value
2022-09-04T00:00:46.320Z,0
2022-09-04T00:01:46.917Z,0
2022-09-04T00:02:47.517Z,0
2022-09-04T00:03:48.177Z,0
2022-09-04T00:04:48.911Z,0
2022-09-04T00:05:49.527Z,0
2022-09-04T00:06:50.177Z,0
2022-09-04T00:07:50.782Z,0
2022-09-04T00:08:51.380Z,0
2022-09-04T00:09:51.978Z,0
2022-09-04T00:10:52.577Z,0
2022-09-04T00:11:53.179Z,0
2022-09-04T00:12:53.774Z,0
2022-09-04T00:13:54.374Z,0
2022-09-04T00:14:54.974Z,0
2022-09-04T00:15:55.560Z,0
2022-09-04T00:16:56.201Z,0
2022-09-04T00:17:56.790Z,0
2022-09-04T00:18:57.384Z,0
2022-09-04T00:19:57.989Z,0
2022-09-04T00:20:58.587Z,0
2022-09-04T00:21:59.186Z,0
2022-09-04T00:22:59.784Z,0
2022-09-04T00:24:00.446Z,0
2022-09-04T00:25:01.045Z,0
2022-09-04T00:26:01.644Z,0
2022-09-04T00:27:02.706Z,0
2022-09-04T00:28:03.295Z,0
2022-09-04T00:29:03.889Z,0
2022-09-04T00:30:04.538Z,0
2022-09-04T00:31:05.208Z,0
2022-09-04T00:32:05.801Z,0
2022-09-04T00:33:06.391Z,0
2022-09-04T00:34:07.033Z,0
2022-09-04T00:35:07.627Z,0
2022-09-04T00:36:08.276Z,0
2022-09-04T00:37:08.919Z,0
2022-09-04T00:38:09.512Z,0
2022-09-04T00:39:10.104Z,0
2022-09-04T00:40:11.743Z,0
2022-09-04T00:41:12.337Z,0
2022-09-04T00:48:44.766Z,0
2022-09-04T00:49:45.359Z,0
2022-09-04T00:50:45.948Z,0
2022-09-04T00:51:46.541Z,0
2022-09-04T00:52:47.285Z,0
2022-09-04T00:53:47.928Z,0
2022-09-04T00:54:48.521Z,0
2022-09-04T00:55:49.112Z,0
2022-09-04T00:56:49.706Z,0
2022-09-04T00:57:50.445Z,0
2022-09-04T00:58:51.038Z,0
2022-09-04T00:59:51.645Z,0
2022-09-04T01:00:52.274Z,0
2022-09-04T01:01:52.998Z,0
2022-09-04T01:02:53.605Z,0
2022-09-04T01:03:54.202Z,0
2022-09-04T01:04:55.797Z,0
2022-09-04T01:05:56.417Z,0
2022-09-04T01:06:57.329Z,0
2022-09-04T01:07:57.930Z,0
2022-09-04T01:08:58.594Z,0
2022-09-04T01:09:59.199Z,0
2022-09-04T01:10:59.792Z,0
2022-09-04T01:12:00.391Z,0
2022-09-04T01:13:00.990Z,0
2022-09-04T01:14:01.597Z,0
2022-09-04T01:15:02.188Z,0
2022-09-04T01:16:02.827Z,0
2022-09-04T01:17:03.422Z,0
2022-09-04T01:18:04.071Z,0
2022-09-04T01:19:04.661Z,0
2022-09-04T01:20:05.253Z,0
2022-09-04T01:21:05.844Z,0
2022-09-04T01:22:06.438Z,0
2022-09-04T01:23:07.029Z,0
2022-09-04T01:24:07.622Z,0
2022-09-04T01:25:08.212Z,0
2022-09-04T01:26:08.804Z,0
2022-09-04T01:27:09.398Z,0
2022-09-04T01:28:10.004Z,0
2022-09-04T01:29:10.608Z,0
2022-09-04T01:30:11.203Z,0
2022-09-04T01:31:11.867Z,0
2022-09-04T01:32:12.453Z,0
2022-09-04T01:33:13.044Z,0
2022-09-04T01:34:13.635Z,0
2022-09-04T01:35:14.227Z,0
2022-09-04T01:36:14.835Z,0
2022-09-04T01:37:15.499Z,0
2022-09-04T01:38:16.097Z,0
2022-09-04T01:39:16.744Z,0
2022-09-04T01:40:17.345Z,0
2022-09-04T01:41:17.991Z,0
2022-09-04T01:42:18.590Z,0
2022-09-04T01:43:19.187Z,0
2022-09-04T01:44:19.774Z,0
2022-09-04T01:45:20.399Z,0
2022-09-04T01:46:20.994Z,0
2022-09-04T01:47:21.586Z,0
2022-09-04T01:48:22.303Z,0
2022-09-04T01:49:22.912Z,0
2022-09-04T01:50:23.654Z,0
2022-09-04T01:51:24.251Z,0
2022-09-04T01:52:24.849Z,0
2022-09-04T01:53:25.447Z,0
2022-09-04T01:54:26.044Z,0
2022-09-04T01:55:26.693Z,0
2022-09-04T01:56:27.279Z,0
2022-09-04T01:57:27.922Z,0
2022-09-04T01:58:28.514Z,0
2022-09-04T01:59:29.105Z,0
2022-09-04T02:00:29.697Z,0
2022-09-04T02:01:31.050Z,0
2022-09-04T02:02:31.681Z,0
2022-09-04T02:03:32.351Z,0
2022-09-04T02:04:32.946Z,0
2022-09-04T02:05:33.540Z,0
2022-09-04T02:06:34.137Z,0
2022-09-04T02:07:34.723Z,0
2022-09-04T02:08:35.314Z,0
2022-09-04T02:09:35.905Z,0
2022-09-04T02:10:36.499Z,0
2022-09-04T02:11:37.148Z,0
2022-09-04T02:12:37.756Z,0
2022-09-04T02:13:38.420Z,0
2022-09-04T02:14:39.018Z,0
2022-09-04T02:15:39.616Z,0
2022-09-04T02:16:40.271Z,0
2022-09-04T02:17:40.892Z,0
2022-09-04T02:18:41.489Z,0
2022-09-04T02:19:42.087Z,0
2022-09-04T02:20:42.686Z,0
2022-09-04T02:21:43.283Z,0
2022-09-04T02:22:43.883Z,0
2022-09-04T02:23:44.486Z,0
2022-09-04T02:24:45.068Z,0
2022-09-04T02:25:45.659Z,0
2022-09-04T02:26:46.252Z,0
2022-09-04T02:27:46.846Z,0
2022-09-04T02:28:47.452Z,0
2022-09-04T02:29:48.047Z,0
2022-09-04T02:30:49.374Z,0
2022-09-04T02:31:50.282Z,0
2022-09-04T02:32:50.884Z,0
2022-09-04T02:33:51.475Z,0
2022-09-04T02:34:52.067Z,0
2022-09-04T02:35:52.664Z,0
2022-09-04T02:36:53.251Z,0
2022-09-04T02:37:53.842Z,0
2022-09-04T02:38:54.436Z,0
2022-09-04T02:39:55.060Z,0
2022-09-04T02:40:55.714Z,0
2022-09-04T02:41:56.325Z,0
2022-09-04T02:42:56.914Z,0
2022-09-04T02:43:57.520Z,0
2022-09-04T02:44:58.105Z,0
2022-09-04T02:45:58.841Z,0
2022-09-04T02:46:59.490Z,0
2022-09-04T02:48:00.092Z,0
2022-09-04T02:49:00.698Z,0
2022-09-04T02:50:01.293Z,0
2022-09-04T02:51:01.892Z,0
2022-09-04T02:52:02.641Z,0
2022-09-04T02:53:03.260Z,0
2022-09-04T02:54:03.840Z,0
2022-09-04T02:55:04.438Z,0
2022-09-04T02:56:05.087Z,0
2022-09-04T02:57:05.686Z,0
2022-09-04T02:58:06.281Z,0
2022-09-04T02:59:06.880Z,0
2022-09-04T03:00:07.479Z,0
2022-09-04T03:01:08.136Z,0
2022-09-04T03:02:08.807Z,0
2022-09-04T03:03:09.394Z,0
2022-09-04T03:04:09.984Z,0
2022-09-04T03:05:10.592Z,0
2022-09-04T03:06:11.191Z,0
2022-09-04T03:07:11.790Z,0
2022-09-04T03:08:12.387Z,0
2022-09-04T03:09:12.985Z,0
2022-09-04T03:10:13.651Z,0
2022-09-04T03:11:14.231Z,0
2022-09-04T03:12:14.827Z,0
2022-09-04T03:13:15.413Z,0
2022-09-04T03:14:16.156Z,0
2022-09-04T03:15:16.749Z,0
2022-09-04T03:16:17.398Z,0
2022-09-04T03:17:18.005Z,0
2022-09-04T03:18:18.638Z,0
2022-09-04T03:19:19.229Z,0
2022-09-04T03:20:19.817Z,0
2022-09-04T03:21:20.408Z,0
2022-09-04T03:22:20.998Z,0
2022-09-04T03:23:21.591Z,0
2022-09-04T03:24:22.182Z,0
2022-09-04T03:25:22.773Z,0
2022-09-04T03:26:23.366Z,0
2022-09-04T03:27:23.958Z,0
2022-09-04T03:28:24.610Z,0
2022-09-04T03:29:25.195Z,0
2022-09-04T03:30:25.786Z,0
2022-09-04T03:31:26.450Z,0
2022-09-04T03:32:27.023Z,0
2022-09-04T03:33:27.630Z,0
2022-09-04T03:34:28.227Z,0
2022-09-04T03:35:28.827Z,0
2022-09-04T03:36:29.528Z,0
2022-09-04T03:37:30.133Z,0
2022-09-04T03:38:30.724Z,0
2022-09-04T03:39:31.351Z,0
2022-09-04T03:40:31.931Z,0
2022-09-04T03:41:32.527Z,0
2022-09-04T03:42:33.126Z,0
2022-09-04T03:43:33.776Z,0
2022-09-04T03:44:34.437Z,0
2022-09-04T03:45:35.035Z,0
2022-09-04T03:46:35.689Z,0
2022-09-04T03:47:36.300Z,0
2022-09-04T04:20:09.541Z,0
2022-09-04T04:21:10.184Z,0
2022-09-04T04:22:10.777Z,0
2022-09-04T04:23:11.368Z,0
2022-09-04T04:24:12.009Z,0
2022-09-04T04:25:12.601Z,0
2022-09-04T04:26:13.243Z,0
2022-09-04T04:27:13.887Z,0
2022-09-04T04:28:14.479Z,0
2022-09-04T04:29:15.071Z,0
2022-09-04T04:30:15.660Z,0
2022-09-04T04:31:16.317Z,0
2022-09-04T04:32:16.923Z,0
2022-09-04T04:33:17.523Z,0
2022-09-04T04:34:18.122Z,0
2022-09-04T04:35:18.725Z,0
2022-09-04T04:36:19.319Z,0
2022-09-04T04:37:19.918Z,0
2022-09-04T04:38:20.619Z,0
2022-09-04T04:39:21.324Z,0
2022-09-04T04:40:21.918Z,0
2022-09-04T04:41:22.519Z,0
2022-09-04T04:42:23.119Z,0
2022-09-04T04:43:23.718Z,0
2022-09-04T04:44:24.316Z,0
2022-09-04T04:45:24.915Z,0
2022-09-04T04:46:25.566Z,0
2022-09-04T04:47:26.158Z,0
2022-09-04T04:48:26.750Z,0
2022-09-04T04:49:27.342Z,0
2022-09-04T04:50:28.032Z,0
2022-09-04T04:51:28.624Z,0
2022-09-04T04:52:29.215Z,0
2022-09-04T04:53:29.812Z,0
2022-09-04T04:54:30.401Z,0
2022-09-04T04:55:30.993Z,0
2022-09-04T04:56:31.638Z,0
2022-09-04T04:57:32.226Z,0
2022-09-04T04:58:32.818Z,0
2022-09-04T04:59:34.419Z,0
2022-09-04T05:00:35.019Z,0
2022-09-04T05:01:35.754Z,0
2022-09-04T05:02:36.459Z,0
2022-09-04T05:03:37.084Z,0
2022-09-04T05:04:37.676Z,0
2022-09-04T05:05:38.270Z,0
2022-09-04T05:06:38.864Z,0
2022-09-04T05:07:39.469Z,0
2022-09-04T05:08:40.070Z,0
2022-09-04T05:09:40.669Z,0
2022-09-04T05:10:41.267Z,0
2022-09-04T05:11:41.865Z,0
2022-09-04T05:12:42.463Z,0
2022-09-04T05:13:43.063Z,0
2022-09-04T05:14:43.662Z,0
2022-09-04T05:16:07.347Z,0
2022-09-04T05:16:45.885Z,0
2022-09-04T05:17:46.467Z,0
2022-09-04T05:18:47.254Z,0
2022-09-04T05:19:47.862Z,0
2022-09-04T05:20:49.603Z,0
2022-09-04T05:21:50.199Z,0
2022-09-04T05:22:50.846Z,0
2022-09-04T05:23:51.443Z,0
2022-09-04T05:24:55.647Z,0
2022-09-04T05:25:53.637Z,0
2022-09-04T05:26:54.285Z,0
2022-09-04T05:27:54.869Z,0
2022-09-04T05:28:55.462Z,0
2022-09-04T05:29:56.054Z,0
2022-09-04T05:30:56.742Z,0
2022-09-04T05:31:57.316Z,0
2022-09-04T05:32:57.956Z,0
2022-09-04T05:33:58.648Z,0
2022-09-04T05:34:59.239Z,0
2022-09-04T05:35:59.881Z,0
2022-09-04T05:37:00.473Z,0
2022-09-04T05:38:01.102Z,0
2022-09-04T05:39:01.693Z,0
2022-09-04T05:40:03.367Z,0
2022-09-04T05:41:04.048Z,0
2022-09-04T05:42:06.786Z,0
2022-09-04T05:43:06.227Z,0
2022-09-04T05:44:06.833Z,0
2022-09-04T05:45:07.430Z,0
2022-09-04T05:46:08.144Z,0
2022-09-04T05:47:08.771Z,0
2022-09-04T05:48:09.368Z,0
2022-09-04T05:49:10.015Z,0
2022-09-04T05:50:10.615Z,0
2022-09-04T05:51:11.213Z,0
2022-09-04T05:52:11.813Z,0
2022-09-04T05:53:12.413Z,0
2022-09-04T05:54:13.076Z,0
2022-09-04T05:55:13.673Z,0
2022-09-04T05:56:14.260Z,0
2022-09-04T05:57:14.852Z,0
2022-09-04T05:58:15.443Z,0
2022-09-04T05:59:16.035Z,0
2022-09-04T06:00:16.643Z,0
2022-09-04T06:01:17.244Z,0
2022-09-04T06:02:17.902Z,0
2022-09-04T06:03:18.577Z,0
2022-09-04T06:04:19.208Z,0
2022-09-04T06:05:20.795Z,0
2022-09-04T06:06:21.387Z,0
2022-09-04T06:07:21.978Z,0
2022-09-04T06:08:27.845Z,0
2022-09-04T06:09:24.158Z,0
2022-09-04T06:10:24.751Z,0
2022-09-04T06:11:25.400Z,0
2022-09-04T06:12:26.018Z,0
2022-09-04T06:13:26.604Z,0
2022-09-04T06:14:27.205Z,0
2022-09-04T06:15:27.801Z,0
2022-09-04T06:16:28.440Z,0
2022-09-04T06:17:29.062Z,0
2022-09-04T06:18:29.653Z,0
2022-09-04T06:19:30.244Z,0
2022-09-04T06:20:30.853Z,0
2022-09-04T06:21:31.516Z,0
2022-09-04T06:22:32.179Z,0
2022-09-04T06:23:32.777Z,0
2022-09-04T06:24:33.376Z,0
2022-09-04T06:25:33.973Z,0
2022-09-04T06:26:34.638Z,0
2022-09-04T06:27:35.508Z,0
2022-09-04T06:28:36.262Z,0
2022-09-04T06:29:36.862Z,0
2022-09-04T06:30:50.413Z,0
2022-09-04T06:32:15.588Z,0
2022-09-04T06:33:16.382Z,0
2022-09-04T06:34:20.361Z,0
2022-09-04T06:35:17.672Z,0
2022-09-04T06:36:18.257Z,0
2022-09-04T06:37:18.897Z,0
2022-09-04T06:38:19.519Z,0
2022-09-04T06:39:20.139Z,0
2022-09-04T06:40:20.725Z,0
2022-09-04T06:41:21.314Z,0
2022-09-04T06:42:21.906Z,0
2022-09-04T06:43:22.509Z,0
2022-09-04T06:44:24.102Z,0
2022-09-04T06:45:24.814Z,0
2022-09-04T06:46:25.447Z,0
2022-09-04T06:47:26.035Z,0
2022-09-04T06:48:26.637Z,0
2022-09-04T06:49:27.232Z,0
2022-09-04T06:50:27.832Z,0
2022-09-04T06:51:28.492Z,0
2022-09-04T06:52:29.091Z,0
2022-09-04T06:53:29.694Z,0
2022-09-04T06:54:32.356Z,0
2022-09-04T06:55:32.560Z,0
2022-09-04T06:56:33.156Z,0
2022-09-04T06:57:33.755Z,0
2022-09-04T06:58:34.352Z,0
2022-09-04T06:59:34.938Z,0
2022-09-04T07:00:35.531Z,0
2022-09-04T07:01:36.264Z,0
2022-09-04T07:02:37.076Z,0
2022-09-04T07:03:37.714Z,0
2022-09-04T07:04:38.305Z,0
2022-09-04T07:05:38.899Z,0
2022-09-04T07:06:39.490Z,0
2022-09-04T07:07:40.082Z,0
2022-09-04T07:08:40.722Z,0
2022-09-04T07:09:41.317Z,0
2022-09-04T07:10:41.906Z,0
2022-09-04T07:11:42.511Z,0
2022-09-04T07:12:43.110Z,0
2022-09-04T07:13:43.710Z,0
2022-09-04T07:14:44.375Z,0
2022-09-04T07:15:45.005Z,0
2022-09-04T07:16:45.589Z,0
2022-09-04T07:17:46.182Z,0
2022-09-04T07:18:47.766Z,0
2022-09-04T07:19:48.371Z,0
2022-09-04T07:20:48.970Z,0
2022-09-04T07:21:49.581Z,0
2022-09-04T07:22:50.162Z,0
2022-09-04T07:23:50.765Z,0
2022-09-04T07:24:51.363Z,0
2022-09-04T07:25:51.961Z,0
2022-09-04T07:26:52.574Z,0
2022-09-04T07:27:53.145Z,0
2022-09-04T07:28:53.737Z,0
2022-09-04T07:29:54.329Z,0
2022-09-04T07:30:54.918Z,0
2022-09-04T07:31:55.580Z,0
2022-09-04T07:32:56.169Z,0
2022-09-04T07:33:56.769Z,0
2022-09-04T07:34:57.567Z,0
2022-09-04T07:35:58.167Z,0
2022-09-04T07:36:58.931Z,0
2022-09-04T07:37:59.529Z,0
2022-09-04T07:39:00.279Z,0
2022-09-04T07:40:00.937Z,0
2022-09-04T07:41:02.064Z,0
2022-09-04T07:42:02.706Z,0
2022-09-04T07:43:03.302Z,0
2022-09-04T07:44:03.896Z,0
2022-09-04T07:45:04.531Z,0
2022-09-04T07:46:05.199Z,0
2022-09-04T07:47:05.771Z,0
2022-09-04T07:48:06.362Z,0
2022-09-04T07:49:06.956Z,4
2022-09-04T07:50:07.552Z,8
2022-09-04T07:51:08.139Z,8
2022-09-04T07:52:09.727Z,12
2022-09-04T07:53:11.428Z,16
2022-09-04T07:54:11.908Z,12
2022-09-04T07:55:14.960Z,12
2022-09-04T07:56:15.567Z,12
2022-09-04T07:57:16.166Z,12
2022-09-04T07:58:16.767Z,8
2022-09-04T07:59:17.366Z,8
2022-09-04T08:00:17.983Z,12
2022-09-04T08:01:18.581Z,12
2022-09-04T08:02:19.164Z,8
2022-09-04T08:03:19.763Z,8
2022-09-04T08:04:20.360Z,8
2022-09-04T08:05:20.963Z,8
2022-09-04T08:06:21.557Z,12
2022-09-04T08:07:24.844Z,8
2022-09-04T08:08:23.748Z,8
2022-09-04T08:09:24.330Z,8
2022-09-04T08:10:24.921Z,8
2022-09-04T08:11:25.565Z,8
2022-09-04T08:12:26.168Z,12
2022-09-04T08:13:26.768Z,12
2022-09-04T08:14:27.380Z,12
2022-09-04T08:15:28.043Z,8
2022-09-04T08:16:28.627Z,8
2022-09-04T08:17:29.216Z,8
2022-09-04T08:18:29.866Z,8
2022-09-04T08:19:30.456Z,8
2022-09-04T08:20:31.049Z,4
2022-09-04T08:21:31.699Z,4
2022-09-04T08:22:32.290Z,8
2022-09-04T08:23:32.882Z,4
2022-09-04T08:24:33.489Z,8
2022-09-04T08:25:34.089Z,8
2022-09-04T08:26:34.687Z,8
2022-09-04T08:27:35.285Z,12
2022-09-04T08:28:36.867Z,12
2022-09-04T08:29:37.458Z,16
2022-09-04T08:30:38.123Z,8
2022-09-04T08:31:38.727Z,12
2022-09-04T08:32:39.337Z,8
2022-09-04T08:33:39.930Z,8
2022-09-04T08:34:40.530Z,12
2022-09-04T08:35:41.128Z,8
2022-09-04T08:36:41.727Z,8
2022-09-04T08:37:42.327Z,8
2022-09-04T08:38:42.928Z,8
2022-09-04T08:39:43.610Z,16
2022-09-04T08:40:44.203Z,8
2022-09-04T08:41:44.790Z,8
2022-09-04T08:42:45.441Z,12
2022-09-04T08:43:46.038Z,12
2022-09-04T08:44:46.639Z,8
2022-09-04T08:45:47.291Z,8
2022-09-04T08:46:47.901Z,12
2022-09-04T08:47:49.463Z,12
2022-09-04T08:48:50.222Z,16
2022-09-04T08:49:50.820Z,16
2022-09-04T08:50:51.421Z,12
2022-09-04T08:51:52.393Z,12
2022-09-04T08:52:53.055Z,12
2022-09-04T08:53:53.704Z,16
2022-09-04T08:54:54.306Z,16
2022-09-04T08:55:54.906Z,12
2022-09-04T08:56:55.495Z,16
2022-09-04T08:57:56.236Z,12
2022-09-04T08:58:56.831Z,12
2022-09-04T08:59:57.422Z,12
2022-09-04T09:00:58.066Z,12
2022-09-04T09:01:58.651Z,12
2022-09-04T09:02:59.259Z,12
2022-09-04T09:03:59.835Z,20
2022-09-04T09:05:00.427Z,24
2022-09-04T09:06:01.020Z,20
2022-09-04T09:07:01.617Z,8
2022-09-04T09:08:02.204Z,8
2022-09-04T09:09:02.797Z,12
2022-09-04T09:10:03.411Z,12
2022-09-04T09:11:04.110Z,20
2022-09-04T09:12:04.801Z,20
2022-09-04T09:13:05.393Z,20
2022-09-04T09:14:05.989Z,16
2022-09-04T09:15:06.594Z,16
2022-09-04T09:16:07.181Z,16
2022-09-04T09:17:08.515Z,12
2022-09-04T09:18:09.113Z,20
2022-09-04T09:19:09.715Z,24
2022-09-04T09:20:10.312Z,24
2022-09-04T09:21:10.913Z,20
2022-09-04T09:22:12.656Z,16
2022-09-04T09:23:17.378Z,16
2022-09-04T09:24:14.698Z,16
2022-09-04T09:25:15.298Z,20
2022-09-04T09:26:15.897Z,24
2022-09-04T09:27:16.496Z,24
2022-09-04T09:28:17.095Z,12
2022-09-04T09:29:17.696Z,16
2022-09-04T09:30:18.295Z,16
2022-09-04T09:31:18.923Z,20
2022-09-04T09:32:19.558Z,24
2022-09-04T09:33:20.242Z,20
2022-09-04T09:34:20.824Z,16
2022-09-04T09:47:18.992Z,16
2022-09-04T09:48:19.585Z,16
2022-09-04T09:49:20.281Z,16
2022-09-04T09:50:20.975Z,12
2022-09-04T09:51:21.568Z,12
2022-09-04T09:52:22.163Z,12
2022-09-04T09:53:22.789Z,8
2022-09-04T09:54:23.378Z,8
2022-09-04T09:55:23.972Z,12
2022-09-04T09:56:24.566Z,12
2022-09-04T09:57:27.329Z,8
2022-09-04T09:58:26.907Z,12
2022-09-04T09:59:27.556Z,12
2022-09-04T10:00:28.158Z,12
2022-09-04T10:01:28.795Z,12
2022-09-04T10:02:29.607Z,12
2022-09-04T10:03:30.209Z,12
2022-09-04T10:04:34.125Z,12
2022-09-04T10:05:32.400Z,8
2022-09-04T10:06:32.999Z,12
2022-09-04T10:07:33.598Z,12
2022-09-04T10:08:35.983Z,12
2022-09-04T10:09:35.790Z,12
2022-09-04T10:10:36.391Z,12
2022-09-04T10:11:36.990Z,12
2022-09-04T10:12:37.593Z,12
2022-09-04T10:13:38.193Z,12
2022-09-04T10:14:38.786Z,12
2022-09-04T10:15:39.374Z,16
2022-09-04T10:16:40.028Z,12
2022-09-04T10:17:40.646Z,12
2022-09-04T10:18:41.392Z,16
2022-09-04T10:19:42.043Z,16
2022-09-04T10:20:42.641Z,16
2022-09-04T10:21:43.230Z,12
2022-09-04T10:22:43.821Z,16
2022-09-04T10:23:44.426Z,16
2022-09-04T10:24:45.067Z,16
2022-09-04T10:25:45.657Z,16
2022-09-04T10:26:46.264Z,16
2022-09-04T10:27:46.863Z,16
2022-09-04T10:28:47.469Z,16
2022-09-04T10:29:48.064Z,16
2022-09-04T10:30:48.704Z,16
2022-09-04T10:31:49.277Z,16
2022-09-04T10:32:49.872Z,12
2022-09-04T10:33:50.464Z,20
2022-09-04T10:34:51.070Z,16
2022-09-04T10:35:51.670Z,16
2022-09-04T10:36:52.267Z,12
2022-09-04T10:37:52.868Z,20
2022-09-04T10:38:53.533Z,40
2022-09-04T10:39:54.187Z,32
2022-09-04T10:40:54.767Z,20
2022-09-04T10:41:55.367Z,16
